Altama, Georgia
Current Conditions -  °F | °C
As of 4:53 PM on Sunday 23 Nov 2014 (Local Time) from KSSI Reporting Station
Haze Haze  
Wind Chill: 65°   Ceiling: 300
Heat Index: 65°   Visibility: 3mi
Dew Point: 65°   Wind: 7mph
Humidity: 100%   Direction: 150°SSE
Pressure: 29.84"   Gusts: NA
Location:  31.1773°N, 81.4991°W
Report Text: KSSI 232153Z AUTO 15006KT 3SM BR BKN003 OVC041 18/18 A2984 RMK AO2 SLP104 T01830183
Loading
Personal Weather Stations






























Interactive Weather Map New forecast layout! Learn more

10-Day Weather Forecast

Advertisements
Track Severe Weather on mobile